createdAt,value
2023-05-22T00:02:42.908Z,100556.00
2023-05-22T00:07:46.100Z,100553.44
2023-05-22T00:12:47.680Z,100581.44
2023-05-22T00:17:49.927Z,100601.53
2023-05-22T00:22:51.517Z,100640.72
2023-05-22T00:27:52.999Z,100691.16
2023-05-22T00:32:54.504Z,100733.84
2023-05-22T00:37:56.035Z,100762.56
2023-05-22T00:42:57.606Z,100774.69
2023-05-22T00:47:59.060Z,100781.72
2023-05-22T00:53:01.125Z,100796.50
2023-05-22T00:58:08.965Z,100806.09
2023-05-22T01:03:10.896Z,100807.03
2023-05-22T01:08:12.504Z,100819.19
2023-05-22T01:13:36.541Z,100807.91
2023-05-22T01:18:56.039Z,100805.34
2023-05-22T01:24:26.596Z,100825.34
2023-05-22T01:30:02.888Z,100840.16
2023-05-22T01:35:11.702Z,100847.06
2023-05-22T01:40:13.769Z,100855.78
2023-05-22T01:45:15.239Z,100861.88
2023-05-22T01:50:16.982Z,100864.47
2023-05-22T01:55:40.439Z,100871.44
2023-05-22T02:00:45.958Z,100873.19
2023-05-22T02:05:51.806Z,100873.19
2023-05-22T02:10:56.161Z,100867.06
2023-05-22T02:15:58.715Z,100888.81
2023-05-22T02:21:00.854Z,100887.94
2023-05-22T02:26:02.307Z,100892.25
2023-05-22T02:31:04.333Z,100883.56
2023-05-22T02:36:06.196Z,100882.72
2023-05-22T02:41:08.324Z,100893.09
2023-05-22T02:46:09.846Z,100888.75
2023-05-22T02:51:11.867Z,100887.00
2023-05-22T02:56:13.331Z,100886.13
2023-05-22T03:01:15.579Z,100882.63
2023-05-22T03:06:17.436Z,100881.78
2023-05-22T03:11:18.949Z,100885.22
2023-05-22T03:16:20.579Z,100879.16
2023-05-22T03:21:22.083Z,100878.19
2023-05-22T03:26:23.519Z,100879.00
2023-05-22T03:31:26.212Z,100872.97
2023-05-22T03:36:27.832Z,100871.16
2023-05-22T03:41:29.374Z,100866.00
2023-05-22T03:46:30.946Z,100863.31
2023-05-22T03:51:32.452Z,100861.59
2023-05-22T03:56:34.744Z,100859.81
2023-05-22T04:01:39.400Z,100874.56
2023-05-22T04:06:43.929Z,100877.31
2023-05-22T04:11:46.513Z,100887.72
2023-05-22T04:16:50.311Z,100889.44
2023-05-22T04:21:52.497Z,100878.16
2023-05-22T04:26:54.064Z,100883.38
2023-05-22T04:31:55.623Z,100881.63
2023-05-22T04:36:57.132Z,100887.72
2023-05-22T04:41:58.543Z,100840.09
2023-05-22T04:47:05.991Z,100802.88
2023-05-22T04:52:11.506Z,100795.94
2023-05-22T04:57:13.064Z,100806.34
2023-05-22T05:02:14.850Z,100794.25
2023-05-22T05:07:17.699Z,100825.47
2023-05-22T05:12:19.243Z,100845.38
2023-05-22T05:17:22.573Z,100844.53
2023-05-22T05:22:24.100Z,100843.66
2023-05-22T05:27:26.153Z,100848.88
2023-05-22T05:32:27.926Z,100836.72
2023-05-22T05:37:29.643Z,100849.75
2023-05-22T05:42:31.147Z,100854.09
2023-05-22T05:47:32.927Z,100857.53
2023-05-22T07:19:12.273Z,101064.88
2023-05-22T07:24:18.630Z,101041.56
2023-05-22T07:29:21.874Z,101014.13
2023-05-22T07:34:29.901Z,100990.22
2023-05-22T07:39:31.382Z,100987.88
2023-05-22T07:44:33.670Z,100981.53
2023-05-22T07:49:35.149Z,100968.56
2023-05-22T07:54:36.901Z,100967.94
2023-05-22T07:59:38.414Z,100972.03
2023-05-22T08:04:40.484Z,100976.59
2023-05-22T08:09:46.034Z,100981.75
2023-05-22T08:14:47.566Z,100998.84
2023-05-22T08:19:49.128Z,100998.50
2023-05-22T08:24:51.005Z,101009.25
2023-05-22T08:29:52.535Z,101002.78
2023-05-22T08:34:53.977Z,100997.19
2023-05-22T08:39:55.525Z,100989.09
2023-05-22T08:44:57.913Z,100988.69
2023-05-22T08:50:00.209Z,100990.84
2023-05-22T08:55:05.114Z,100983.09
2023-05-22T09:00:08.561Z,100982.75
2023-05-22T09:05:10.221Z,100989.78
2023-05-22T09:10:11.818Z,100986.47
2023-05-22T09:15:13.899Z,100987.09
2023-05-22T09:20:15.765Z,100983.81
2023-05-22T09:25:21.773Z,100978.63
2023-05-22T09:30:23.435Z,100985.69
2023-05-22T09:35:27.767Z,100989.66
2023-05-22T09:40:29.428Z,100977.31
2023-05-22T09:45:34.688Z,100987.50
2023-05-22T09:50:37.023Z,100974.03
2023-05-22T09:55:39.520Z,100969.09
2023-05-22T10:00:41.916Z,100956.94
2023-05-22T10:05:48.745Z,100953.69
2023-05-22T10:10:53.131Z,100973.13
2023-05-22T10:15:55.381Z,100981.22
2023-05-22T10:20:58.002Z,100997.00
2023-05-22T10:25:59.550Z,101005.88
2023-05-22T10:31:09.304Z,101071.75
2023-05-22T10:36:31.566Z,101082.97
2023-05-22T10:41:33.683Z,101077.38
2023-05-22T10:46:36.667Z,101077.00
2023-05-22T10:51:38.492Z,101077.91
2023-05-22T10:56:40.528Z,101094.94
2023-05-22T11:01:42.054Z,101091.38
2023-05-22T11:06:47.315Z,101096.81
2023-05-22T11:12:17.818Z,101100.25
2023-05-22T11:17:29.330Z,101097.09
2023-05-22T11:22:39.017Z,101087.19
2023-05-22T11:27:41.661Z,101064.97
2023-05-22T11:32:45.302Z,101058.31
2023-05-22T11:37:47.537Z,101059.84
2023-05-22T11:42:49.202Z,101067.25
2023-05-22T11:47:50.970Z,101063.03
2023-05-22T11:52:53.980Z,101072.44
2023-05-22T11:57:56.526Z,101067.50
2023-05-22T12:02:58.253Z,101057.47
2023-05-22T12:08:00.075Z,101060.03
2023-05-22T12:13:01.615Z,101069.06
2023-05-22T12:18:03.114Z,101137.38
2023-05-22T12:23:04.734Z,101202.19
2023-05-22T12:28:07.445Z,101205.78
2023-05-22T12:33:15.471Z,101200.59
2023-05-22T12:38:16.967Z,101201.97
2023-05-22T12:43:18.710Z,101190.84
2023-05-22T12:48:20.392Z,101194.19
2023-05-22T12:53:21.870Z,101195.50
2023-05-22T12:58:23.425Z,101190.09
2023-05-22T13:03:25.043Z,101182.94
2023-05-22T13:08:26.504Z,101171.94
2023-05-22T13:13:28.036Z,101178.53
2023-05-22T13:18:29.520Z,101175.59
2023-05-22T13:23:31.209Z,101178.19
2023-05-22T13:28:32.641Z,101176.09
2023-05-22T13:33:34.325Z,101174.09
2023-05-22T13:38:35.829Z,101167.44
2023-05-22T13:43:37.412Z,101174.75
2023-05-22T13:48:38.973Z,101192.38
2023-05-22T13:53:40.421Z,101184.88
2023-05-22T13:58:41.848Z,101213.56
2023-05-22T14:03:44.701Z,101093.44
2023-05-22T14:08:46.217Z,100928.56
2023-05-22T14:13:48.516Z,100940.91
2023-05-22T14:18:50.129Z,100930.25
2023-05-22T14:23:51.649Z,100934.59
2023-05-22T14:28:53.911Z,100942.53
2023-05-22T14:33:55.693Z,100941.66
2023-05-22T14:38:57.153Z,100941.66
2023-05-22T14:43:58.828Z,100932.72
2023-05-22T14:49:00.388Z,100927.19
2023-05-22T14:54:01.863Z,100917.22
2023-05-22T14:59:03.350Z,100920.53
2023-05-22T15:04:05.400Z,100937.84
2023-05-22T15:09:07.097Z,100935.44
2023-05-22T15:14:08.566Z,100944.28
2023-05-22T15:19:10.115Z,100965.16
2023-05-22T15:24:11.895Z,100971.22
2023-05-22T15:29:13.447Z,100990.81
2023-05-22T15:34:14.973Z,101003.22
2023-05-22T15:39:16.786Z,101017.41
2023-05-22T15:44:19.396Z,101024.56
2023-05-22T15:49:20.868Z,101024.97
2023-05-22T15:54:22.408Z,101024.66
2023-05-22T15:59:23.857Z,101022.91
2023-05-22T16:04:25.436Z,101017.94
2023-05-22T16:09:26.929Z,101025.28
2023-05-22T16:14:28.405Z,101034.34
2023-05-22T16:19:30.345Z,101039.41
2023-05-22T16:24:32.017Z,101041.81
2023-05-22T16:29:33.653Z,101053.47
2023-05-22T16:34:36.600Z,101063.94
2023-05-22T16:39:39.854Z,101053.72
2023-05-22T16:44:41.358Z,101054.50
2023-05-22T16:49:42.925Z,101066.81
2023-05-22T16:54:44.379Z,101066.81
2023-05-22T16:59:46.028Z,101067.19
2023-05-22T17:04:47.792Z,101075.94
2023-05-22T17:09:49.308Z,101085.19
2023-05-22T17:14:51.138Z,101080.16
2023-05-22T17:19:53.390Z,101082.38
2023-05-22T17:24:54.853Z,101106.31
2023-05-22T17:29:56.306Z,101099.53
2023-05-22T17:34:57.753Z,101116.09
2023-05-22T17:39:59.316Z,101120.63
2023-05-22T17:45:00.905Z,101133.97
2023-05-22T17:50:02.393Z,101133.44
2023-05-22T17:55:04.237Z,101139.97
2023-05-22T18:00:09.730Z,101151.25
2023-05-22T18:05:11.264Z,101158.28
2023-05-22T18:10:13.118Z,101165.41
2023-05-22T18:15:14.582Z,101174.41
2023-05-22T18:20:16.903Z,101177.47
2023-05-22T18:25:18.497Z,101200.13
2023-05-22T18:30:20.051Z,101201.22
2023-05-22T18:35:21.866Z,101200.50
2023-05-22T18:40:23.321Z,101201.31
2023-05-22T18:45:24.778Z,101198.84
2023-05-22T18:50:26.504Z,101205.97
2023-05-22T18:55:28.286Z,101205.28
2023-05-22T19:00:30.741Z,101218.47
2023-05-22T19:05:32.311Z,101221.13
2023-05-22T19:10:33.928Z,101239.50
2023-05-22T19:15:35.877Z,101244.63
2023-05-22T19:20:37.657Z,101252.59
2023-05-22T19:25:39.349Z,101260.47
2023-05-22T19:30:41.249Z,101270.09
2023-05-22T19:35:43.715Z,101274.47
2023-05-22T19:40:46.788Z,101278.88
2023-05-22T19:45:48.668Z,101276.25
2023-05-22T19:50:50.297Z,101286.72
2023-05-22T19:55:51.806Z,101286.72
2023-05-22T20:00:53.392Z,101300.63
2023-05-22T20:05:54.920Z,101312.81
2023-05-22T20:10:56.442Z,101316.22
2023-05-22T20:15:58.278Z,101317.97
2023-05-22T20:20:59.945Z,101315.34
2023-05-22T20:26:01.450Z,101321.44
2023-05-22T20:31:04.194Z,101312.72
2023-05-22T20:36:06.479Z,101324.88
2023-05-22T20:41:09.629Z,101343.94
2023-05-22T20:46:11.701Z,101343.94
2023-05-22T20:51:15.782Z,101350.03
2023-05-22T20:56:17.422Z,101361.34
2023-05-22T21:01:18.990Z,101358.69
2023-05-22T21:06:20.512Z,101362.16
2023-05-22T21:11:22.136Z,101370.91
2023-05-22T21:16:26.307Z,101363.09
2023-05-22T21:21:28.123Z,101378.78
2023-05-22T21:26:29.643Z,101385.66
2023-05-22T21:31:35.479Z,101390.00
2023-05-22T21:36:37.647Z,101376.00
2023-05-22T21:41:39.097Z,101381.09
2023-05-22T21:46:40.683Z,101386.25
2023-05-22T21:51:42.258Z,101388.81
2023-05-22T21:56:43.760Z,101397.28
2023-05-22T22:01:45.552Z,101394.59
2023-05-22T22:06:47.193Z,101403.13
2023-05-22T22:11:48.793Z,101408.28
2023-05-22T22:16:54.195Z,101406.59
2023-05-22T22:21:55.833Z,101395.31
2023-05-22T22:26:57.320Z,101396.22
2023-05-22T22:31:58.898Z,101395.41
2023-05-22T22:37:00.682Z,101400.56
2023-05-22T22:42:05.056Z,101410.19
2023-05-22T22:47:07.530Z,101397.19
2023-05-22T22:52:09.022Z,101401.50
2023-05-22T22:57:10.918Z,101406.69
2023-05-22T23:02:12.334Z,101418.00
2023-05-22T23:07:13.851Z,101417.88
2023-05-22T23:12:15.386Z,101416.13
2023-05-22T23:17:16.886Z,101421.22
2023-05-22T23:22:18.939Z,101420.34
2023-05-22T23:27:20.452Z,101432.44
2023-05-22T23:32:22.389Z,101432.44
2023-05-22T23:37:23.856Z,101439.38
2023-05-22T23:42:25.778Z,101433.31
2023-05-22T23:47:27.311Z,101435.78
2023-05-22T23:52:28.850Z,101443.59
2023-05-22T23:57:30.612Z,101444.47
